Time;durP1;ratioP1;P1;durP2;ratioP2;P2;SDS_P1;SDS_P2;PMS_P1;PMS_P2;Temp;Humidity;BMP_temperature;BMP_pressure;BME280_temperature;BME280_humidity;BME280_pressure;Samples;Min_cycle;Max_cycle;Signal;HPM_P1;HPM_P2
2021/01/08 00:01:21;;;;;;;1.77;1.17;;;;;;;1.63;85.16;99665.79;1795628;78;21219;-73
2021/01/08 00:03:49;;;;;;;1.70;1.10;;;;;;;1.64;85.26;99670.02;1787300;79;21187;-75
2021/01/08 00:06:20;;;;;;;2.27;1.35;;;;;;;1.65;85.17;99670.85;1787504;79;21199;-75
2021/01/08 00:08:47;;;;;;;1.57;1.17;;;;;;;1.65;84.91;99664.27;1803133;78;21807;-75
2021/01/08 00:11:24;;;;;;;1.98;1.30;;;;;;;1.67;84.79;99675.88;1785876;78;21006;-75
2021/01/08 00:13:51;;;;;;;2.40;1.37;;;;;;;1.69;84.75;99673.84;1772992;78;21207;-75
2021/01/08 00:16:19;;;;;;;2.37;1.45;;;;;;;1.70;84.67;99674.13;1795552;78;21639;-77
2021/01/08 00:18:48;;;;;;;1.95;1.40;;;;;;;1.71;84.37;99678.36;1770802;79;21188;-77
2021/01/08 00:21:15;;;;;;;1.67;1.10;;;;;;;1.73;84.08;99676.32;1785503;79;21369;-75
2021/01/08 00:23:47;;;;;;;2.58;1.42;;;;;;;1.75;83.83;99684.30;1776787;78;21176;-75
2021/01/08 00:26:17;;;;;;;1.80;1.20;;;;;;;1.77;83.59;99678.28;1802753;78;26139;-75
2021/01/08 00:28:44;;;;;;;1.75;1.20;;;;;;;1.77;83.43;99685.38;1728944;78;21479;-74
2021/01/08 00:31:13;;;;;;;2.10;1.27;;;;;;;1.79;82.96;99674.13;1795734;78;21173;-74
2021/01/08 00:33:41;;;;;;;2.62;1.30;;;;;;;1.81;82.81;99698.39;1795273;78;21378;-72
2021/01/08 00:36:10;;;;;;;1.90;1.10;;;;;;;1.81;82.54;99699.70;1781617;78;21337;-75
2021/01/08 00:38:37;;;;;;;1.92;1.30;;;;;;;1.79;82.21;99664.39;1804611;78;21173;-74
2021/01/08 00:41:05;;;;;;;2.08;1.10;;;;;;;1.79;81.84;99693.36;1758301;80;21727;-75
2021/01/08 00:43:32;;;;;;;1.62;1.17;;;;;;;1.80;81.78;99690.20;1776896;78;21196;-72
2021/01/08 00:46:00;;;;;;;2.20;1.02;;;;;;;1.79;81.13;99717.57;1789780;78;21405;-73
2021/01/08 00:48:27;;;;;;;2.08;1.20;;;;;;;1.83;80.83;99696.35;1782075;78;21140;-75
2021/01/08 00:51:02;;;;;;;2.05;1.30;;;;;;;1.83;80.21;99709.00;1777413;78;21187;-74
2021/01/08 00:53:30;;;;;;;1.60;1.15;;;;;;;1.83;80.30;99680.03;1774668;80;21203;-74
2021/01/08 00:55:58;;;;;;;1.90;1.20;;;;;;;1.83;80.11;99702.94;1768070;78;21570;-75
2021/01/08 00:58:26;;;;;;;2.35;1.37;;;;;;;1.82;80.09;99700.02;1774504;78;21421;-72
2021/01/08 01:00:55;;;;;;;2.75;1.25;;;;;;;1.82;80.14;99721.08;1802981;78;21183;-73
2021/01/08 01:03:23;;;;;;;1.85;1.10;;;;;;;1.80;80.24;99711.27;1813241;78;21167;-75
2021/01/08 01:05:51;;;;;;;2.45;1.10;;;;;;;1.80;80.36;99710.75;1788465;80;21144;-75
2021/01/08 01:08:18;;;;;;;2.30;1.50;;;;;;;1.80;80.35;99722.61;1818583;78;21223;-74
2021/01/08 01:10:47;;;;;;;1.85;1.22;;;;;;;1.80;80.39;99719.17;1800845;78;21366;-75
2021/01/08 01:13:14;;;;;;;1.67;1.20;;;;;;;1.81;80.38;99720.77;1783141;79;21215;-75
2021/01/08 01:15:42;;;;;;;2.22;1.45;;;;;;;1.82;80.37;99725.83;1804707;78;21200;-73
2021/01/08 01:18:10;;;;;;;2.05;1.30;;;;;;;1.81;80.36;99726.03;1783778;80;21171;-73
2021/01/08 01:20:43;;;;;;;1.90;1.10;;;;;;;1.80;80.35;99734.97;1785039;78;21127;-74
2021/01/08 01:23:15;;;;;;;2.33;1.40;;;;;;;1.79;80.35;99732.85;1782032;78;21798;-74
2021/01/08 01:25:46;;;;;;;1.72;1.17;;;;;;;1.80;80.39;99750.77;1783472;78;21709;-75
2021/01/08 01:28:14;;;;;;;1.52;1.10;;;;;;;1.78;80.02;99735.20;1788870;79;21301;-74
2021/01/08 01:30:42;;;;;;;1.77;1.22;;;;;;;1.81;79.90;99737.39;1779254;78;21149;-77
2021/01/08 01:33:09;;;;;;;1.90;1.17;;;;;;;1.82;79.77;99754.80;1774571;79;21595;-76
2021/01/08 01:35:37;;;;;;;2.10;1.30;;;;;;;1.81;79.81;99746.61;1775716;79;21473;-74
2021/01/08 01:38:04;;;;;;;2.22;1.22;;;;;;;1.82;79.87;99786.39;1769690;79;21663;-74
2021/01/08 01:40:32;;;;;;;2.40;1.30;;;;;;;1.85;79.92;99745.66;1782573;79;21191;-75
2021/01/08 01:43:00;;;;;;;2.17;1.40;;;;;;;1.83;79.86;99745.86;1781154;79;21179;-74
2021/01/08 01:45:27;;;;;;;1.60;1.10;;;;;;;1.85;80.07;99744.34;1777942;79;21160;-74
2021/01/08 01:47:56;;;;;;;1.70;1.10;;;;;;;1.85;80.17;99739.88;1784601;79;21193;-75
2021/01/08 01:50:26;;;;;;;2.20;1.30;;;;;;;1.87;80.14;99744.91;1786891;79;21636;-75
2021/01/08 01:52:54;;;;;;;2.17;1.40;;;;;;;1.89;80.30;99749.45;1781865;78;21179;-77
2021/01/08 01:55:22;;;;;;;2.22;1.40;;;;;;;1.90;80.07;99758.95;1782121;79;21223;-74
2021/01/08 01:57:54;;;;;;;2.72;1.50;;;;;;;1.91;79.99;99750.05;1776433;78;21191;-75
2021/01/08 02:00:22;;;;;;;2.62;1.50;;;;;;;1.94;79.94;99754.88;1704370;80;21655;-74
2021/01/08 02:03:17;;;;;;;2.72;1.50;;;;;;;1.96;79.65;99736.22;1802661;78;21191;-74
2021/01/08 02:05:47;;;;;;;2.75;1.50;;;;;;;1.98;79.58;99761.83;1758843;79;21657;-75
2021/01/08 02:08:22;;;;;;;2.37;1.60;;;;;;;2.01;79.58;99767.45;1796649;78;21591;-76
2021/01/08 02:11:11;;;;;;;3.20;1.62;;;;;;;2.00;79.73;99764.52;1794654;78;21151;-75
2021/01/08 02:14:18;;;;;;;2.77;1.73;;;;;;;2.04;79.90;99749.91;1761350;79;22066;-74
2021/01/08 02:16:47;;;;;;;3.12;1.80;;;;;;;2.01;80.05;99762.71;1738770;81;21187;-74
2021/01/08 02:19:33;;;;;;;5.35;2.02;;;;;;;1.99;79.95;99766.06;1742780;80;21361;-74
2021/01/08 02:22:14;;;;;;;3.22;2.02;;;;;;;2.01;79.95;99766.66;1745334;81;21222;-74
2021/01/08 02:25:10;;;;;;;3.37;1.93;;;;;;;2.07;80.06;99772.34;1768765;79;22600;-75
2021/01/08 02:27:40;;;;;;;2.80;1.90;;;;;;;2.01;80.19;99770.09;1745637;82;21050;-74
2021/01/08 02:30:10;;;;;;;2.80;1.77;;;;;;;2.01;79.94;99780.63;1727517;81;21334;-75
2021/01/08 02:32:37;;;;;;;3.35;1.98;;;;;;;2.02;79.49;99788.02;1761187;79;21211;-75
2021/01/08 02:35:08;;;;;;;2.90;1.77;;;;;;;2.03;78.98;99783.83;1755841;81;21171;-74
2021/01/08 02:37:42;;;;;;;3.02;2.10;;;;;;;2.03;78.89;99748.79;1746653;81;21123;-75
2021/01/08 02:40:12;;;;;;;3.30;2.10;;;;;;;2.05;79.13;99773.89;1748661;81;21179;-76
2021/01/08 02:42:42;;;;;;;3.10;2.22;;;;;;;2.05;79.09;99772.57;1760545;79;21532;-76
2021/01/08 02:45:11;;;;;;;3.20;2.00;;;;;;;2.06;79.18;99775.48;1757438;81;21152;-74
2021/01/08 02:47:38;;;;;;;3.00;2.05;;;;;;;2.09;79.33;99783.47;1763730;81;21187;-74
2021/01/08 02:50:09;;;;;;;3.27;2.10;;;;;;;2.08;79.47;99792.41;1755870;79;21156;-77
2021/01/08 02:52:41;;;;;;;3.47;2.17;;;;;;;2.07;79.62;99790.29;1739773;81;21185;-75
2021/01/08 02:55:11;;;;;;;3.60;2.20;;;;;;;2.07;79.74;99789.46;1744300;81;21159;-75
2021/01/08 02:57:42;;;;;;;2.95;1.82;;;;;;;2.09;79.90;99800.08;1694237;82;21299;-74
2021/01/08 03:00:10;;;;;;;3.17;2.02;;;;;;;2.09;79.92;99804.03;1763191;81;21187;-74
2021/01/08 03:02:38;;;;;;;3.83;2.20;;;;;;;2.07;80.03;99804.78;1738937;81;21092;-76
2021/01/08 03:05:07;;;;;;;3.17;1.98;;;;;;;2.04;80.06;99801.27;1713107;81;21196;-77
2021/01/08 03:07:34;;;;;;;3.22;1.95;;;;;;;2.06;79.94;99807.09;1740998;81;21380;-75
2021/01/08 03:10:02;;;;;;;3.33;2.22;;;;;;;2.07;79.73;99808.73;1740739;81;21549;-74
2021/01/08 03:12:30;;;;;;;3.45;2.08;;;;;;;2.08;79.70;99808.22;1735625;81;21147;-75
2021/01/08 03:15:00;;;;;;;2.55;1.80;;;;;;;2.08;79.69;99809.02;1747602;81;21535;-74
2021/01/08 03:17:28;;;;;;;3.10;2.12;;;;;;;2.10;79.62;99808.78;1691661;81;21195;-76
2021/01/08 03:19:55;;;;;;;3.10;1.87;;;;;;;2.09;79.65;99808.50;1742333;81;21380;-75
2021/01/08 03:22:23;;;;;;;3.37;1.98;;;;;;;2.08;79.78;99835.36;1735949;81;21216;-75
2021/01/08 03:24:51;;;;;;;3.45;2.08;;;;;;;2.08;79.74;99832.72;1737176;81;21072;-75
2021/01/08 03:27:19;;;;;;;4.08;2.10;;;;;;;2.07;79.57;99842.97;1743989;81;21590;-74
2021/01/08 03:29:47;;;;;;;2.72;1.77;;;;;;;2.09;79.68;99836.95;1780409;79;21131;-74
2021/01/08 03:32:14;;;;;;;2.85;1.77;;;;;;;2.10;79.65;99834.61;1778757;79;21376;-76
2021/01/08 03:34:42;;;;;;;2.83;1.80;;;;;;;2.10;79.36;99846.98;1781529;79;21179;-74
2021/01/08 03:37:10;;;;;;;3.08;1.80;;;;;;;2.10;79.38;99824.06;1776932;79;21097;-74
2021/01/08 03:39:37;;;;;;;3.75;2.15;;;;;;;2.11;79.25;99851.24;1778322;79;21183;-75
2021/01/08 03:42:05;;;;;;;2.92;1.85;;;;;;;2.11;79.20;99849.41;1779006;79;21206;-74
2021/01/08 03:44:34;;;;;;;3.85;1.95;;;;;;;2.13;78.95;99858.91;1771263;80;21298;-75
2021/01/08 03:47:02;;;;;;;4.47;2.45;;;;;;;2.15;78.79;99842.39;1782298;79;21111;-75
2021/01/08 03:49:29;;;;;;;3.15;2.12;;;;;;;2.15;78.78;99851.61;1779445;79;21175;-76
2021/01/08 03:51:57;;;;;;;3.85;2.20;;;;;;;2.13;78.93;99851.01;1799571;79;21111;-74
2021/01/08 03:54:24;;;;;;;3.17;1.92;;;;;;;2.15;78.98;99868.22;1776748;79;21135;-76
2021/01/08 03:56:52;;;;;;;3.83;2.22;;;;;;;2.18;79.06;99869.61;1775420;80;21451;-75
2021/01/08 03:59:19;;;;;;;3.30;2.10;;;;;;;2.18;78.99;99873.05;1771706;79;21196;-76
2021/01/08 04:01:48;;;;;;;3.87;2.12;;;;;;;2.17;79.00;99875.89;1778295;79;21143;-75
2021/01/08 04:04:16;;;;;;;4.25;2.62;;;;;;;2.17;79.16;99880.64;1778930;79;21131;-75
2021/01/08 04:06:43;;;;;;;3.58;2.27;;;;;;;2.16;79.17;99883.51;1775728;80;21129;-76
2021/01/08 04:09:11;;;;;;;3.75;2.20;;;;;;;2.14;79.27;99881.59;1771870;80;21083;-74
2021/01/08 04:11:40;;;;;;;3.98;2.10;;;;;;;2.14;79.42;99877.64;1783363;79;21071;-73
2021/01/08 04:14:08;;;;;;;4.25;2.65;;;;;;;2.15;79.43;99877.95;1777149;79;21107;-74
2021/01/08 04:16:36;;;;;;;4.33;2.80;;;;;;;2.13;79.29;99876.03;1769769;79;21129;-75
2021/01/08 04:19:08;;;;;;;3.50;2.20;;;;;;;2.13;79.28;99882.62;1786858;79;21155;-75
2021/01/08 04:21:36;;;;;;;4.10;2.62;;;;;;;2.13;79.24;99884.74;1790970;79;21386;-75
2021/01/08 04:24:05;;;;;;;4.53;2.80;;;;;;;2.14;79.16;99890.33;1775184;79;21135;-75
2021/01/08 04:26:33;;;;;;;4.20;2.60;;;;;;;2.15;79.16;99889.81;1767054;80;21607;-77
2021/01/08 04:29:01;;;;;;;3.95;2.55;;;;;;;2.16;79.17;99899.31;1772915;79;21722;-75
2021/01/08 04:31:31;;;;;;;4.33;2.55;;;;;;;2.16;79.09;99886.14;1789037;79;21175;-75
2021/01/08 04:33:59;;;;;;;4.80;3.22;;;;;;;2.19;79.19;99894.93;1783208;79;22382;-76
2021/01/08 04:36:26;;;;;;;4.75;3.30;;;;;;;2.18;79.13;99909.13;1776419;80;21155;-75
2021/01/08 04:38:54;;;;;;;4.67;3.17;;;;;;;2.19;79.06;99893.09;1771820;79;21183;-75
2021/01/08 04:41:22;;;;;;;5.60;3.75;;;;;;;2.21;78.91;99893.70;1786172;79;21560;-75
2021/01/08 04:43:49;;;;;;;6.05;3.70;;;;;;;2.22;79.00;99883.44;1756351;79;21142;-75
2021/01/08 04:46:28;;;;;;;5.95;3.92;;;;;;;2.23;78.89;99915.86;1780028;80;22096;-74
2021/01/08 04:48:58;;;;;;;6.47;3.80;;;;;;;2.22;78.85;99901.88;1775273;80;21107;-74
2021/01/08 04:51:26;;;;;;;6.97;4.30;;;;;;;2.21;78.92;99909.50;1784987;79;21151;-75
2021/01/08 04:53:55;;;;;;;6.25;4.22;;;;;;;2.21;78.83;99914.77;1761961;79;21143;-75
2021/01/08 04:56:29;;;;;;;6.10;4.08;;;;;;;2.22;78.79;99916.38;1718754;82;21193;-74
2021/01/08 04:58:58;;;;;;;7.00;4.58;;;;;;;2.22;78.71;99915.05;1708064;82;21381;-74
2021/01/08 05:01:25;;;;;;;7.28;4.80;;;;;;;2.25;78.80;99921.73;1736015;81;21463;-76
2021/01/08 05:03:53;;;;;;;6.92;4.92;;;;;;;2.25;78.78;99909.87;1745178;81;21630;-75
2021/01/08 05:06:20;;;;;;;6.80;4.78;;;;;;;2.25;78.80;99905.92;1772364;79;21081;-74
2021/01/08 05:08:48;;;;;;;6.87;5.05;;;;;;;2.24;78.69;99915.66;1776196;80;21055;-76
2021/01/08 05:11:26;;;;;;;8.48;5.62;;;;;;;2.24;78.64;99918.30;1776130;79;21606;-75
2021/01/08 05:14:00;;;;;;;8.60;5.80;;;;;;;2.24;78.76;99886.67;1778516;79;21179;-74
2021/01/08 05:16:31;;;;;;;7.50;5.30;;;;;;;2.22;78.70;99908.47;1774980;79;21239;-75
2021/01/08 05:19:04;;;;;;;8.78;5.92;;;;;;;2.24;78.62;99943.84;1780931;79;21064;-74
2021/01/08 05:21:32;;;;;;;8.18;5.53;;;;;;;2.23;78.75;99938.25;1796327;79;21142;-76
2021/01/08 05:24:03;;;;;;;8.43;6.12;;;;;;;2.23;78.75;99932.98;1786055;79;21371;-76
2021/01/08 05:26:31;;;;;;;7.67;5.40;;;;;;;2.24;78.68;99933.30;1775787;80;21132;-73
2021/01/08 05:29:01;;;;;;;9.55;6.45;;;;;;;2.25;78.77;99941.48;1777662;79;21499;-75
2021/01/08 05:31:32;;;;;;;10.48;6.22;;;;;;;2.25;78.56;99946.76;1775910;79;21179;-75
2021/01/08 05:34:02;;;;;;;8.20;5.33;;;;;;;2.24;78.54;99935.42;1766828;79;21097;-74
2021/01/08 05:36:30;;;;;;;10.18;6.50;;;;;;;2.26;78.57;99952.31;1771435;79;21378;-75
2021/01/08 05:38:59;;;;;;;10.60;6.53;;;;;;;2.26;78.42;99948.36;1777521;79;21183;-76
2021/01/08 05:41:29;;;;;;;10.08;6.42;;;;;;;2.26;78.48;99951.00;1783666;79;21104;-75
2021/01/08 05:43:59;;;;;;;9.80;6.55;;;;;;;2.25;78.46;99955.47;1772912;79;21111;-77
2021/01/08 05:46:29;;;;;;;10.45;7.00;;;;;;;2.26;78.48;99968.92;1772377;79;21139;-75
2021/01/08 05:49:03;;;;;;;11.00;6.55;;;;;;;2.26;78.56;99976.03;1783763;79;21202;-75
2021/01/08 05:51:34;;;;;;;12.13;7.35;;;;;;;2.27;78.53;99992.13;1780833;79;21682;-76
2021/01/08 05:54:03;;;;;;;11.15;7.50;;;;;;;2.24;78.37;99993.39;1775856;79;21592;-76
2021/01/08 05:56:36;;;;;;;13.72;8.28;;;;;;;2.25;78.46;99996.83;1773719;79;21151;-75
2021/01/08 05:59:06;;;;;;;13.53;7.97;;;;;;;2.25;78.54;99987.60;1778595;79;21130;-76
2021/01/08 06:01:37;;;;;;;14.53;8.53;;;;;;;2.23;78.63;99989.63;1780914;79;21353;-73
2021/01/08 06:04:09;;;;;;;12.70;8.08;;;;;;;2.22;78.55;99989.34;1779935;79;21239;-74
2021/01/08 06:06:41;;;;;;;12.70;8.53;;;;;;;2.22;78.64;100011.23;1775028;79;21154;-75
2021/01/08 06:09:11;;;;;;;;;;;;;;;2.23;78.73;100000.17;1791870;79;21132;-75
2021/01/08 06:11:43;;;;;;;14.87;9.63;;;;;;;2.24;78.72;100000.49;1785654;79;20273;-76
2021/01/08 06:14:12;;;;;;;15.25;9.98;;;;;;;2.25;78.84;100009.48;1786163;79;22400;-76
2021/01/08 06:16:44;;;;;;;16.30;9.85;;;;;;;2.25;78.71;100018.70;1771557;79;21611;-74
2021/01/08 06:19:16;;;;;;;16.85;10.72;;;;;;;2.25;78.71;100036.34;1769599;80;21122;-75
2021/01/08 06:21:45;;;;;;;15.35;10.13;;;;;;;2.23;78.65;100029.95;1782971;79;21133;-76
2021/01/08 06:24:26;;;;;;;17.05;11.12;;;;;;;2.21;78.60;100033.86;1785211;79;21495;-73
2021/01/08 06:26:54;;;;;;;17.85;11.15;;;;;;;2.21;78.70;100033.34;1773266;79;21277;-76
2021/01/08 06:29:26;;;;;;;18.05;11.30;;;;;;;2.21;78.62;100039.12;1772100;79;21138;-75
2021/01/08 06:31:57;;;;;;;17.50;11.08;;;;;;;2.20;78.68;100034.86;1773498;79;21565;-74
2021/01/08 06:34:30;;;;;;;18.32;11.48;;;;;;;2.19;78.70;100041.16;1781249;79;21107;-75
2021/01/08 06:37:08;;;;;;;17.12;10.50;;;;;;;2.19;78.68;100051.69;1776734;79;21049;-76
2021/01/08 06:39:44;;;;;;;19.60;11.83;;;;;;;2.18;78.80;100051.41;1775629;79;21212;-75
2021/01/08 06:42:29;;;;;;;19.15;12.18;;;;;;;2.17;78.69;100055.05;1770618;79;21127;-74
2021/01/08 06:44:58;;;;;;;18.80;11.88;;;;;;;2.19;78.79;100062.23;1790143;79;21100;-75
2021/01/08 06:47:29;;;;;;;21.40;12.43;;;;;;;2.18;78.78;100054.84;1772355;79;21725;-75
2021/01/08 06:49:58;;;;;;;19.57;12.03;;;;;;;2.17;78.82;100065.58;1775506;79;21201;-76
2021/01/08 06:52:25;;;;;;;23.15;12.63;;;;;;;2.17;78.86;100068.22;1757665;79;21265;-74
2021/01/08 06:54:56;;;;;;;20.70;13.32;;;;;;;2.15;78.72;100072.39;1719647;79;21685;-75
2021/01/08 06:57:24;;;;;;;18.62;12.45;;;;;;;2.12;78.74;100078.09;1781499;79;21159;-76
2021/01/08 07:00:05;;;;;;;21.27;13.03;;;;;;;2.12;78.72;100080.72;1782817;79;21099;-75
2021/01/08 07:02:33;;;;;;;21.45;12.78;;;;;;;2.16;78.78;100082.42;1794436;79;21149;-75
2021/01/08 07:05:01;;;;;;;22.77;13.95;;;;;;;2.17;78.68;100086.66;1781930;79;21548;-74
2021/01/08 07:07:29;;;;;;;21.75;13.20;;;;;;;2.16;78.67;100102.18;1775242;79;21076;-75
2021/01/08 07:09:57;;;;;;;18.67;11.93;;;;;;;2.15;78.60;100099.26;1768621;79;21147;-76
2021/01/08 07:12:26;;;;;;;22.70;14.07;;;;;;;2.14;78.57;100098.45;1757072;80;21132;-76
2021/01/08 07:14:54;;;;;;;22.25;13.13;;;;;;;2.11;78.46;100101.51;1785544;79;21175;-75
2021/01/08 07:17:32;;;;;;;20.48;13.40;;;;;;;2.11;78.51;100098.36;1772675;79;21810;-73
2021/01/08 07:20:05;;;;;;;19.05;11.93;;;;;;;2.10;78.46;100095.92;1769816;79;21115;-75
2021/01/08 07:22:40;;;;;;;18.25;10.90;;;;;;;2.10;78.47;100108.58;1780327;79;21244;-77
2021/01/08 07:25:13;;;;;;;20.70;13.22;;;;;;;2.10;78.40;100108.58;1791457;79;21241;-75
2021/01/08 07:27:42;;;;;;;18.85;11.43;;;;;;;2.09;78.38;100116.70;1779400;79;21622;-75
2021/01/08 07:30:11;;;;;;;20.60;13.20;;;;;;;2.09;78.42;100108.29;1776797;79;21377;-74
2021/01/08 07:32:48;;;;;;;19.12;12.65;;;;;;;2.11;78.51;100106.27;1783810;79;21151;-75
2021/01/08 07:35:32;;;;;;;21.37;11.95;;;;;;;2.12;78.50;100113.66;1772014;79;21175;-75
2021/01/08 07:38:06;;;;;;;17.73;11.80;;;;;;;2.15;78.31;100105.33;1774948;79;21686;-75
2021/01/08 07:40:40;;;;;;;19.12;12.05;;;;;;;2.17;78.37;100116.95;1774968;79;21199;-75
2021/01/08 07:43:11;;;;;;;19.45;12.80;;;;;;;2.17;78.15;100119.08;1768768;79;21558;-77
2021/01/08 07:45:57;;;;;;;18.27;11.35;;;;;;;2.18;78.10;100113.32;1768851;79;21674;-76
2021/01/08 07:48:35;;;;;;;18.32;12.23;;;;;;;2.20;77.99;100122.61;1776383;79;21187;-76
2021/01/08 07:51:08;;;;;;;18.27;12.00;;;;;;;2.23;77.87;100120.06;1771574;80;21167;-76
2021/01/08 07:53:48;;;;;;;18.05;11.05;;;;;;;2.23;77.78;100124.02;1774387;80;21119;-76
2021/01/08 07:56:24;;;;;;;;;;;;;;;2.24;77.66;100120.38;1783113;79;22321;-73
2021/01/08 07:59:02;;;;;;;19.45;12.80;;;;;;;2.28;77.48;100147.41;1775704;79;20715;-74
2021/01/08 08:01:32;;;;;;;19.32;11.50;;;;;;;2.31;77.49;100144.34;1774581;79;21045;-75
2021/01/08 08:04:09;;;;;;;16.60;10.63;;;;;;;2.34;77.33;100138.65;1782476;79;21104;-76
2021/01/08 08:06:40;;;;;;;17.25;11.38;;;;;;;2.40;77.17;100133.02;1777626;79;21181;-74
2021/01/08 08:09:19;;;;;;;17.23;11.40;;;;;;;2.44;76.91;100135.55;1768579;79;21361;-76
2021/01/08 08:11:47;;;;;;;19.05;11.22;;;;;;;2.46;76.93;100130.84;1773138;79;21151;-73
2021/01/08 08:14:17;;;;;;;17.07;10.93;;;;;;;2.48;76.41;100143.31;1789232;79;21181;-75
2021/01/08 08:16:47;;;;;;;16.75;10.85;;;;;;;2.47;76.49;100139.07;1745551;82;21167;-75
2021/01/08 08:19:16;;;;;;;16.65;11.15;;;;;;;2.46;76.34;100153.25;1735479;81;21167;-76
2021/01/08 08:21:49;;;;;;;17.15;10.75;;;;;;;2.43;76.35;100150.23;1744031;81;21372;-75
2021/01/08 08:24:18;;;;;;;18.70;11.57;;;;;;;2.40;76.06;100121.67;1742736;81;21151;-74
2021/01/08 08:26:48;;;;;;;17.40;10.90;;;;;;;2.38;76.20;100131.64;1742218;81;21128;-75
2021/01/08 08:29:17;;;;;;;15.90;10.88;;;;;;;2.37;76.07;100141.38;1738593;81;21195;-76
2021/01/08 08:31:50;;;;;;;18.50;12.30;;;;;;;2.34;75.93;100151.02;1742019;81;21230;-74
2021/01/08 08:34:31;;;;;;;15.48;10.23;;;;;;;2.30;75.98;100137.47;1742787;81;21380;-75
2021/01/08 08:37:09;;;;;;;16.70;11.48;;;;;;;2.31;76.17;100142.22;1748632;81;21086;-74
2021/01/08 08:39:38;;;;;;;16.82;10.90;;;;;;;2.33;76.24;100155.46;1740807;81;21223;-76
2021/01/08 08:42:07;;;;;;;16.32;10.82;;;;;;;2.33;76.00;100152.02;1739635;81;21170;-75
2021/01/08 08:44:42;;;;;;;14.98;10.45;;;;;;;2.34;76.09;100152.34;1784815;79;21658;-78
2021/01/08 08:47:10;;;;;;;16.52;10.80;;;;;;;2.38;76.09;100167.22;1782857;79;21385;-74
2021/01/08 08:49:40;;;;;;;15.78;11.03;;;;;;;2.38;75.77;100162.75;1749158;79;21468;-76
2021/01/08 08:52:09;;;;;;;16.42;11.12;;;;;;;2.41;75.82;100150.47;1789368;79;21143;-76
2021/01/08 08:54:39;;;;;;;15.65;10.45;;;;;;;2.43;75.67;100159.47;1776106;79;21227;-74
2021/01/08 08:57:08;;;;;;;15.60;10.18;;;;;;;2.46;75.61;100171.70;1782282;79;21147;-74
2021/01/08 08:59:38;;;;;;;13.95;9.60;;;;;;;2.46;75.21;100171.70;1776619;79;21812;-75
2021/01/08 09:02:07;;;;;;;16.15;10.75;;;;;;;2.48;75.22;100172.83;1770511;80;21254;-74
2021/01/08 09:04:36;;;;;;;14.90;10.30;;;;;;;2.49;75.12;100179.19;1773251;79;21131;-73
2021/01/08 09:07:12;;;;;;;16.75;11.05;;;;;;;2.55;75.19;100180.17;1779937;79;21127;-74
2021/01/08 09:09:41;;;;;;;13.88;10.00;;;;;;;2.58;75.04;100176.60;1775653;79;21667;-76
2021/01/08 09:12:31;;;;;;;16.48;10.70;;;;;;;2.59;74.56;100180.04;1773607;79;21486;-73
2021/01/08 09:15:06;;;;;;;15.55;10.78;;;;;;;2.55;74.04;100191.52;1767757;79;21246;-74
2021/01/08 09:17:37;;;;;;;15.20;10.23;;;;;;;2.54;74.31;100171.47;1776196;79;21127;-75
2021/01/08 09:20:06;;;;;;;16.07;9.60;;;;;;;2.54;73.72;100173.30;1776020;79;21131;-76
2021/01/08 09:22:35;;;;;;;15.40;9.70;;;;;;;2.54;73.72;100173.30;1759587;79;21120;-74
2021/01/08 09:25:04;;;;;;;15.48;10.25;;;;;;;2.49;73.53;100161.25;1777931;79;21364;-75
2021/01/08 09:27:32;;;;;;;16.10;10.20;;;;;;;2.48;73.70;100186.01;1748995;81;21135;-75
2021/01/08 09:30:13;;;;;;;14.60;10.20;;;;;;;2.48;73.37;100165.72;1719008;81;21152;-75
2021/01/08 09:32:40;;;;;;;14.53;10.20;;;;;;;2.46;73.54;100185.40;1739280;81;21071;-75
2021/01/08 09:35:10;;;;;;;14.95;9.98;;;;;;;2.44;73.67;100185.63;1747468;80;21174;-77
2021/01/08 09:37:48;;;;;;;15.65;8.98;;;;;;;2.42;73.56;100191.61;1775100;79;22636;-75
2021/01/08 09:40:18;;;;;;;14.33;10.08;;;;;;;2.43;73.66;100193.22;1767630;79;21251;-75
2021/01/08 09:42:46;;;;;;;13.70;9.88;;;;;;;2.44;73.34;100172.45;1777073;79;22789;-75
2021/01/08 09:45:24;;;;;;;16.95;11.25;;;;;;;2.42;73.24;100192.13;1774737;79;21195;-75
2021/01/08 09:47:53;;;;;;;15.80;10.40;;;;;;;2.39;73.32;100191.23;1768305;79;21247;-74
2021/01/08 09:50:29;;;;;;;14.43;9.93;;;;;;;2.37;73.56;100190.14;1773606;79;21363;-76
2021/01/08 09:53:00;;;;;;;15.10;10.23;;;;;;;2.41;73.50;100190.52;1775433;80;21182;-76
2021/01/08 09:55:30;;;;;;;14.15;9.58;;;;;;;2.44;73.59;100179.55;1779080;79;21814;-75
2021/01/08 09:58:01;;;;;;;12.60;8.63;;;;;;;2.47;73.47;100189.16;1775832;79;21141;-75
2021/01/08 10:00:37;;;;;;;14.07;9.40;;;;;;;2.45;72.97;100170.09;1769719;79;21416;-76
2021/01/08 10:03:07;;;;;;;13.98;8.83;;;;;;;2.39;72.66;100192.03;1777063;79;21511;-74
2021/01/08 10:05:36;;;;;;;14.50;9.98;;;;;;;2.40;72.51;100201.55;1768406;79;21207;-77
2021/01/08 10:08:05;;;;;;;14.85;9.25;;;;;;;2.35;72.59;100184.26;1742572;80;21181;-76
2021/01/08 10:10:38;;;;;;;13.75;9.40;;;;;;;2.34;72.71;100188.72;1733695;81;21109;-76
2021/01/08 10:13:15;;;;;;;13.43;8.78;;;;;;;2.38;72.70;100190.42;1737574;80;21182;-76
2021/01/08 10:15:51;;;;;;;12.80;9.18;;;;;;;2.41;72.63;100187.88;1706223;81;21392;-75
2021/01/08 10:18:35;;;;;;;14.90;10.38;;;;;;;2.43;72.76;100185.82;1740424;81;21279;-75
2021/01/08 10:21:15;;;;;;;13.75;9.23;;;;;;;2.47;72.83;100186.52;1710366;81;21167;-75
2021/01/08 10:23:43;;;;;;;12.35;8.73;;;;;;;2.46;72.41;100190.16;1774062;79;21509;-75
2021/01/08 10:26:13;;;;;;;12.23;8.50;;;;;;;2.42;72.14;100186.85;1775378;79;21179;-76
2021/01/08 10:28:50;;;;;;;12.75;9.10;;;;;;;2.40;71.87;100187.05;1767647;79;21374;-76
2021/01/08 10:31:19;;;;;;;13.40;9.58;;;;;;;2.38;72.17;100186.47;1766883;79;21174;-75
2021/01/08 10:33:47;;;;;;;13.55;9.95;;;;;;;2.41;72.39;100184.73;1740457;80;21256;-76
2021/01/08 10:36:15;;;;;;;11.73;7.83;;;;;;;2.40;72.05;100192.32;1735817;81;21223;-76
2021/01/08 10:38:43;;;;;;;12.23;8.23;;;;;;;2.35;71.59;100183.74;1732069;81;21163;-78
2021/01/08 10:41:17;;;;;;;12.55;8.58;;;;;;;2.30;71.62;100188.02;1731660;81;21438;-74
2021/01/08 10:43:45;;;;;;;12.07;8.20;;;;;;;2.26;71.58;100192.11;1733784;81;21195;-75
2021/01/08 10:46:14;;;;;;;11.60;8.13;;;;;;;2.22;71.40;100200.14;1727314;81;21175;-75
2021/01/08 10:48:43;;;;;;;12.03;8.08;;;;;;;2.22;71.53;100190.92;1774331;79;21166;-75
2021/01/08 10:51:11;;;;;;;11.55;7.58;;;;;;;2.24;71.70;100196.80;1776531;79;21467;-76
2021/01/08 10:53:38;;;;;;;11.65;8.38;;;;;;;2.26;71.90;100203.45;1772491;79;21376;-76
2021/01/08 10:56:08;;;;;;;12.35;8.40;;;;;;;2.26;71.74;100186.84;1785963;79;21202;-76
2021/01/08 10:58:36;;;;;;;12.78;8.85;;;;;;;2.26;71.54;100190.79;1775920;79;21650;-76
2021/01/08 11:01:04;;;;;;;14.30;8.95;;;;;;;2.24;71.51;100197.60;1763629;79;21199;-74
2021/01/08 11:03:32;;;;;;;10.88;7.20;;;;;;;2.26;71.59;100200.81;1777793;79;21139;-75
2021/01/08 11:06:01;;;;;;;10.53;6.83;;;;;;;2.30;71.58;100193.30;1778391;79;21348;-75
2021/01/08 11:08:29;;;;;;;10.80;7.80;;;;;;;2.33;71.39;100200.78;1768587;80;21103;-73
2021/01/08 11:10:56;;;;;;;14.95;11.28;;;;;;;2.32;71.11;100199.17;1778931;79;21123;-74
2021/01/08 11:13:24;;;;;;;13.88;12.05;;;;;;;2.32;71.08;100189.95;1781421;79;21182;-74
2021/01/08 11:15:52;;;;;;;10.93;7.95;;;;;;;2.33;71.18;100196.31;1774026;79;21175;-75
2021/01/08 11:18:20;;;;;;;13.85;8.48;;;;;;;2.34;70.88;100194.00;1777560;80;21797;-75
2021/01/08 11:20:47;;;;;;;11.08;8.23;;;;;;;2.33;71.07;100194.99;1767615;79;21249;-73
2021/01/08 11:23:17;;;;;;;11.60;7.85;;;;;;;2.34;71.02;100195.83;1777985;79;21151;-75
2021/01/08 11:25:45;;;;;;;10.95;7.70;;;;;;;2.32;71.00;100196.54;1785324;79;21262;-74
2021/01/08 11:28:12;;;;;;;11.18;8.25;;;;;;;2.34;70.93;100198.47;1783303;79;21539;-76
2021/01/08 11:30:40;;;;;;;11.53;7.65;;;;;;;2.33;70.66;100200.78;1773343;79;21370;-77
2021/01/08 11:33:07;;;;;;;12.40;8.40;;;;;;;2.32;70.33;100193.91;1770423;79;21705;-75
2021/01/08 11:35:37;;;;;;;10.85;7.55;;;;;;;2.31;70.38;100198.88;1774537;79;21199;-75
2021/01/08 11:38:05;;;;;;;9.63;7.03;;;;;;;2.30;70.07;100212.58;1777542;79;21518;-76
2021/01/08 11:40:33;;;;;;;9.50;6.87;;;;;;;2.26;69.75;100206.60;1779791;79;21170;-76
2021/01/08 11:43:02;;;;;;;10.75;7.40;;;;;;;2.25;69.76;100210.27;1782563;79;21392;-76
2021/01/08 11:45:30;;;;;;;12.33;7.70;;;;;;;2.21;69.70;100213.83;1790014;79;21176;-74
2021/01/08 11:47:58;;;;;;;11.00;7.55;;;;;;;2.21;69.79;100213.83;1779747;79;21202;-75